Time;durP1;ratioP1;P1;durP2;ratioP2;P2;SDS_P1;SDS_P2;PMS_P1;PMS_P2;Temp;Humidity;BMP_temperature;BMP_pressure;BME280_temperature;BME280_humidity;BME280_pressure;Samples;Min_cycle;Max_cycle;Signal;HPM_P1;HPM_P2
2021/12/30 00:01:17;;;;;;;;;0.00;0.00;;;;;14.10;100.00;101018.72;5035160;28;46174;-76
2021/12/30 00:03:44;;;;;;;;;0.00;0.00;;;;;14.05;100.00;101018.03;5049832;28;45740;-76
2021/12/30 00:06:10;;;;;;;;;0.00;0.00;;;;;14.12;100.00;101040.75;5049733;28;45475;-77
2021/12/30 00:08:36;;;;;;;;;0.00;0.00;;;;;14.01;100.00;101014.59;5053633;28;45458;-77
2021/12/30 00:11:05;;;;;;;;;0.00;0.00;;;;;14.08;100.00;101034.66;5053177;28;46392;-76
2021/12/30 00:13:30;;;;;;;;;0.00;0.00;;;;;14.06;100.00;101038.31;5052996;28;45598;-78
2021/12/30 00:15:56;;;;;;;;;0.00;0.00;;;;;14.02;100.00;101023.44;5053215;28;45821;-77
2021/12/30 00:18:21;;;;;;;;;0.00;0.00;;;;;14.07;100.00;101035.59;5053267;28;45599;-77
2021/12/30 00:20:47;;;;;;;;;0.00;0.00;;;;;13.99;100.00;101024.38;5051783;28;45476;-78
2021/12/30 00:23:13;;;;;;;;;0.00;0.00;;;;;14.07;100.00;101037.38;5052477;28;45450;-77
2021/12/30 00:25:41;;;;;;;;;0.00;0.00;;;;;14.06;100.00;101043.59;5045133;28;45814;-77
2021/12/30 00:28:10;;;;;;;;;0.00;0.00;;;;;13.85;100.00;101018.66;5051229;28;45566;-77
2021/12/30 00:30:36;;;;;;;;;0.50;0.00;;;;;14.06;100.00;101051.53;5049052;28;47145;-76
2021/12/30 00:33:02;;;;;;;;;0.00;0.00;;;;;14.00;100.00;101044.66;5055126;28;45468;-76
2021/12/30 00:35:28;;;;;;;;;2.00;0.00;;;;;14.04;100.00;101042.75;5056042;28;45663;-75
2021/12/30 00:37:54;;;;;;;;;0.00;0.00;;;;;14.02;100.00;101036.66;5056600;28;45405;-76
2021/12/30 00:40:20;;;;;;;;;0.00;0.00;;;;;14.00;100.00;101042.00;5055730;28;46117;-77
2021/12/30 00:42:45;;;;;;;;;0.00;0.00;;;;;14.03;100.00;101048.97;5056261;28;45791;-77
2021/12/30 00:45:11;;;;;;;;;0.00;0.00;;;;;14.06;100.00;101047.09;5056631;28;45684;-77
2021/12/30 00:47:36;;;;;;;;;0.00;0.00;;;;;14.04;100.00;101048.94;5056021;28;45574;-77
2021/12/30 00:50:02;;;;;;;;;0.00;0.00;;;;;14.06;100.00;101040.94;5055794;28;45792;-77
2021/12/30 00:52:28;;;;;;;;;0.00;0.00;;;;;14.15;100.00;101053.88;5055559;28;45546;-77
2021/12/30 00:54:53;;;;;;;;;0.00;0.00;;;;;13.98;100.00;101030.59;5055605;28;45436;-78
2021/12/30 00:57:19;;;;;;;;;0.00;0.00;;;;;14.12;100.00;101051.34;5056700;28;45793;-78
2021/12/30 00:59:45;;;;;;;;;0.00;0.00;;;;;14.21;100.00;101051.03;5056057;28;45835;-76
2021/12/30 01:02:10;;;;;;;;;0.00;0.00;;;;;14.18;100.00;101050.28;5056329;28;45491;-76
2021/12/30 01:04:35;;;;;;;;;0.00;0.00;;;;;14.26;100.00;101065.00;5055829;28;45513;-78
2021/12/30 01:07:01;;;;;;;;;0.00;0.00;;;;;14.28;100.00;101057.00;5056666;28;45496;-78
2021/12/30 01:09:27;;;;;;;;;0.00;0.00;;;;;14.30;100.00;101057.78;5056153;28;45792;-79
2021/12/30 01:11:54;;;;;;;;;0.00;0.00;;;;;14.10;100.00;101026.66;5045220;28;45535;-77
2021/12/30 01:14:24;;;;;;;;;0.00;0.00;;;;;14.30;100.00;101054.28;5055857;28;45538;-78
2021/12/30 01:16:53;;;;;;;;;0.00;0.00;;;;;14.33;100.00;101060.34;5056401;28;45437;-77
2021/12/30 01:22:03;;;;;;;;;0.00;0.00;;;;;14.37;100.00;101061.97;5055072;28;45411;-78
2021/12/30 01:24:28;;;;;;;;;0.00;0.00;;;;;14.40;100.00;101061.00;5050677;28;45403;-76
2021/12/30 01:26:54;;;;;;;;;0.00;0.00;;;;;14.41;100.00;101073.34;5046552;28;46252;-75
2021/12/30 01:29:19;;;;;;;;;0.00;0.00;;;;;14.39;100.00;101061.91;5040415;28;46359;-77
2021/12/30 01:31:45;;;;;;;;;0.00;0.00;;;;;14.16;100.00;101031.78;5039483;28;45297;-76
2021/12/30 01:34:11;;;;;;;;;0.00;0.00;;;;;14.38;100.00;101078.75;5041716;28;45425;-76
2021/12/30 01:36:37;;;;;;;;;0.00;0.00;;;;;14.38;100.00;101070.81;5060035;28;45512;-77
2021/12/30 01:39:02;;;;;;;;;0.00;0.00;;;;;14.40;100.00;101077.75;5059634;28;45738;-77
2021/12/30 01:41:28;;;;;;;;;0.00;0.00;;;;;14.40;100.00;101077.75;5076531;27;45222;-76
2021/12/30 01:43:53;;;;;;;;;0.00;0.00;;;;;14.40;100.00;101079.56;5080004;27;45447;-76
2021/12/30 01:46:18;;;;;;;;;0.00;0.00;;;;;14.35;100.00;101066.47;5080176;27;45211;-75
2021/12/30 01:48:44;;;;;;;;;0.00;0.00;;;;;14.36;100.00;101083.22;5079747;27;45315;-76
2021/12/30 01:51:11;;;;;;;;;0.00;0.00;;;;;14.35;100.00;101076.19;5041256;27;45336;-75
2021/12/30 01:53:38;;;;;;;;;0.00;0.00;;;;;14.35;100.00;101082.38;5039572;28;45439;-77
2021/12/30 01:56:05;;;;;;;;;0.00;0.00;;;;;14.32;100.00;101084.22;5056985;28;45609;-76
2021/12/30 01:58:31;;;;;;;;;0.00;0.00;;;;;14.38;100.00;101087.56;5079596;28;45467;-77
2021/12/30 02:00:57;;;;;;;;;0.00;0.00;;;;;14.37;100.00;101085.81;5069870;27;45353;-75
2021/12/30 02:03:23;;;;;;;;;0.00;0.00;;;;;14.36;100.00;101080.56;5059623;28;45329;-75
2021/12/30 02:05:50;;;;;;;;;0.00;0.00;;;;;14.43;100.00;101100.66;5059598;28;45389;-76
2021/12/30 02:08:17;;;;;;;;;0.00;0.00;;;;;14.44;100.00;101092.63;5059519;28;45321;-76
2021/12/30 02:10:45;;;;;;;;;0.00;0.00;;;;;14.43;100.00;101082.09;5059249;28;45364;-75
2021/12/30 02:13:13;;;;;;;;;0.00;0.00;;;;;14.43;100.00;101084.75;5069210;28;45817;-77
2021/12/30 02:15:39;;;;;;;;;0.00;0.00;;;;;14.42;100.00;101080.34;5079799;27;45378;-76
2021/12/30 02:18:05;;;;;;;;;0.00;0.00;;;;;14.34;100.00;101064.72;5079137;27;46622;-76
2021/12/30 02:20:41;;;;;;;;;0.00;0.00;;;;;14.42;100.00;101085.66;5059564;27;45349;-76
2021/12/30 02:23:08;;;;;;;;;0.00;0.00;;;;;14.38;100.00;101084.06;5049827;28;45289;-77
2021/12/30 02:25:34;;;;;;;;;0.00;0.00;;;;;14.39;100.00;101091.06;5066368;28;45293;-77
2021/12/30 02:27:59;;;;;;;;;0.00;0.00;;;;;14.39;100.00;101088.41;5039811;28;46102;-77
2021/12/30 02:30:24;;;;;;;;;0.00;0.00;;;;;14.42;100.00;101107.75;5052082;28;45459;-76
2021/12/30 02:32:50;;;;;;;;;0.00;0.00;;;;;14.44;100.00;101105.88;5058588;28;45410;-76
2021/12/30 02:35:16;;;;;;;;;1.00;0.00;;;;;14.38;100.00;101097.28;5040162;28;45561;-75
2021/12/30 02:37:41;;;;;;;;;0.00;0.00;;;;;14.46;100.00;101103.19;5063970;28;45482;-76
2021/12/30 02:40:07;;;;;;;;;0.00;0.00;;;;;14.44;100.00;101110.34;5055317;27;45763;-76
2021/12/30 02:42:32;;;;;;;;;1.00;0.00;;;;;14.46;100.00;101108.47;5039691;28;45257;-75
2021/12/30 02:44:58;;;;;;;;;0.00;0.00;;;;;14.39;100.00;101099.00;5067292;28;45356;-77
2021/12/30 02:47:23;;;;;;;;;0.00;0.00;;;;;14.50;100.00;101104.81;5078956;27;45853;-76
2021/12/30 02:49:49;;;;;;;;;0.00;0.00;;;;;14.54;100.00;101113.56;5068511;27;45380;-76
2021/12/30 02:52:14;;;;;;;;;0.00;0.00;;;;;14.51;100.00;101122.47;5057085;28;45305;-76
2021/12/30 02:54:42;;;;;;;;;0.00;0.00;;;;;14.51;100.00;101113.63;5058515;28;45403;-76
2021/12/30 02:57:08;;;;;;;;;1.50;0.00;;;;;14.45;100.00;101114.72;5046573;28;46290;-76
2021/12/30 02:59:33;;;;;;;;;0.00;0.00;;;;;14.49;100.00;101116.31;5050525;28;45483;-76
2021/12/30 03:01:59;;;;;;;;;0.00;0.00;;;;;14.54;100.00;101119.72;5058382;28;45910;-75
2021/12/30 03:04:26;;;;;;;;;0.00;0.00;;;;;14.51;100.00;101118.94;5056363;28;45361;-76
2021/12/30 03:06:52;;;;;;;;;0.00;0.00;;;;;14.53;100.00;101125.91;5039245;28;46255;-76
2021/12/30 03:09:18;;;;;;;;;0.00;0.00;;;;;14.51;100.00;101119.81;5038178;28;45202;-76
2021/12/30 03:11:43;;;;;;;;;0.50;0.50;;;;;14.45;100.00;101115.56;5052078;28;45205;-76
2021/12/30 03:14:09;;;;;;;;;0.00;0.00;;;;;14.49;100.00;101134.03;5057926;28;45351;-76
2021/12/30 03:16:36;;;;;;;;;0.00;0.00;;;;;14.49;100.00;101131.38;5050647;28;46532;-76
2021/12/30 03:19:03;;;;;;;;;0.80;0.00;;;;;14.54;100.00;101153.31;5037963;28;45521;-76
2021/12/30 03:21:28;;;;;;;;;0.60;0.00;;;;;14.50;100.00;101144.56;5052537;28;45301;-76
2021/12/30 03:23:57;;;;;;;;;1.75;0.00;;;;;14.55;100.00;101149.72;5056649;28;45858;-76
2021/12/30 03:26:23;;;;;;;;;0.00;0.00;;;;;14.54;100.00;101163.91;5044679;28;45403;-76
2021/12/30 03:28:49;;;;;;;;;0.00;0.00;;;;;14.47;100.00;101149.13;5046756;28;45425;-76
2021/12/30 03:31:17;;;;;;;;;0.00;0.00;;;;;14.50;100.00;101165.75;5048521;28;45435;-77
2021/12/30 03:33:43;;;;;;;;;0.00;0.00;;;;;14.53;100.00;101170.09;5038057;28;45540;-76
2021/12/30 03:36:10;;;;;;;;;0.75;0.00;;;;;14.52;100.00;101163.94;5044491;28;45544;-76
2021/12/30 03:38:38;;;;;;;;;0.80;0.00;;;;;14.50;100.00;101163.13;5072509;28;45400;-76
2021/12/30 03:41:06;;;;;;;;;0.00;0.00;;;;;14.34;100.00;101135.41;5054780;28;45241;-76
2021/12/30 03:43:32;;;;;;;;;0.00;0.00;;;;;14.55;100.00;101179.75;5057651;28;45391;-76
2021/12/30 03:45:58;;;;;;;;;0.00;0.00;;;;;14.51;100.00;101158.66;5056969;28;46279;-77
2021/12/30 03:48:31;;;;;;;;;0.00;0.00;;;;;14.53;100.00;101178.91;5057567;28;45853;-77
2021/12/30 03:50:56;;;;;;;;;0.00;0.00;;;;;14.48;100.00;101172.03;5057170;28;45581;-78
2021/12/30 03:53:22;;;;;;;;;0.00;0.00;;;;;14.53;100.00;101173.63;5058011;28;45644;-76
2021/12/30 03:55:51;;;;;;;;;0.00;0.00;;;;;14.50;100.00;101168.41;5043282;28;45605;-76
2021/12/30 03:58:17;;;;;;;;;0.00;0.00;;;;;14.51;100.00;101179.88;5051474;28;45488;-76
2021/12/30 04:00:42;;;;;;;;;0.00;0.00;;;;;14.42;100.00;101166.03;5037424;28;45267;-77
2021/12/30 04:03:08;;;;;;;;;0.00;0.00;;;;;14.43;100.00;101166.88;5048571;28;45383;-76
2021/12/30 04:05:33;;;;;;;;;0.00;0.00;;;;;14.48;100.00;101180.84;5057121;28;46560;-76
2021/12/30 04:07:58;;;;;;;;;0.00;0.00;;;;;14.43;100.00;101174.81;5053250;28;45459;-76
2021/12/30 04:10:24;;;;;;;;;0.00;0.00;;;;;14.42;100.00;101183.69;5044442;28;45587;-75
2021/12/30 04:12:52;;;;;;;;;1.00;0.00;;;;;14.45;100.00;101186.25;5046595;28;45345;-77
2021/12/30 04:15:18;;;;;;;;;0.00;0.00;;;;;14.44;100.00;101198.63;5037095;28;46329;-76
2021/12/30 04:17:44;;;;;;;;;0.00;0.00;;;;;14.40;100.00;101193.47;5037156;28;45402;-77
2021/12/30 04:20:11;;;;;;;;;0.00;0.00;;;;;14.18;100.00;101172.94;5037078;28;45424;-76
2021/12/30 04:22:38;;;;;;;;;0.00;0.00;;;;;14.37;100.00;101206.81;5037313;28;45476;-75
2021/12/30 04:25:08;;;;;;;;;0.00;0.00;;;;;14.31;100.00;101189.34;5036908;28;46699;-77
2021/12/30 04:27:34;;;;;;;;;0.00;0.00;;;;;14.39;100.00;101213.81;5037068;28;45434;-75
2021/12/30 04:29:59;;;;;;;;;0.00;0.00;;;;;14.19;100.00;101190.59;5038116;28;45305;-77
2021/12/30 04:32:25;;;;;;;;;1.00;1.00;;;;;14.32;100.00;101212.28;5037219;28;45523;-77
2021/12/30 04:34:50;;;;;;;;;0.00;0.00;;;;;14.34;100.00;101221.03;5037044;28;45506;-77
2021/12/30 04:37:16;;;;;;;;;0.00;0.00;;;;;14.24;100.00;101206.31;5037753;28;45266;-77
2021/12/30 04:39:42;;;;;;;;;2.25;2.25;;;;;14.34;100.00;101214.88;5042170;28;45432;-77
2021/12/30 04:42:07;;;;;;;;;0.00;0.00;;;;;14.26;100.00;101199.19;5048221;28;45552;-76
2021/12/30 04:44:33;;;;;;;;;0.00;0.00;;;;;14.28;100.00;101210.63;5048582;28;46460;-75
2021/12/30 04:46:58;;;;;;;;;0.00;0.00;;;;;14.27;100.00;101198.28;5055314;28;45228;-77
2021/12/30 04:49:25;;;;;;;;;0.00;0.00;;;;;14.38;100.00;101217.38;5056360;28;45534;-76
2021/12/30 04:51:51;;;;;;;;;0.00;0.00;;;;;14.32;100.00;101206.09;5057412;28;45282;-76
2021/12/30 04:54:17;;;;;;;;;0.00;0.00;;;;;14.33;100.00;101216.63;5056457;28;47077;-76
2021/12/30 04:56:43;;;;;;;;;0.00;0.00;;;;;14.40;100.00;101214.66;5056452;28;45382;-75
2021/12/30 04:59:08;;;;;;;;;0.00;0.00;;;;;14.35;100.00;101206.88;5052821;28;45563;-77
2021/12/30 05:01:34;;;;;;;;;0.00;0.00;;;;;14.43;100.00;101226.03;5051318;28;45367;-77
2021/12/30 05:03:59;;;;;;;;;0.00;0.00;;;;;14.35;100.00;101201.56;5039060;28;46300;-76
2021/12/30 05:06:25;;;;;;;;;0.00;0.00;;;;;14.38;100.00;101212.06;5056759;28;45433;-77
2021/12/30 05:08:50;;;;;;;;;1.25;0.00;;;;;14.45;100.00;101218.91;5058962;28;45275;-76
2021/12/30 05:11:15;;;;;;;;;4.25;0.25;;;;;14.48;100.00;101217.06;5060241;28;45477;-76
2021/12/30 05:13:41;;;;;;;;;0.00;0.00;;;;;14.45;100.00;101218.91;5042594;28;46179;-76
2021/12/30 05:16:06;;;;;;;;;0.75;0.00;;;;;14.46;100.00;101217.13;5060098;28;45462;-77
2021/12/30 05:18:33;;;;;;;;;0.00;0.00;;;;;14.36;100.00;101203.31;5060212;28;45355;-77
2021/12/30 05:21:02;;;;;;;;;1.00;1.00;;;;;14.55;100.00;101223.91;5059571;28;45202;-76
2021/12/30 05:23:28;;;;;;;;;0.00;0.00;;;;;14.44;100.00;101217.16;5058665;28;47328;-76
2021/12/30 05:25:54;;;;;;;;;0.00;0.00;;;;;14.53;100.00;101234.56;5059687;28;45299;-77
2021/12/30 05:28:19;;;;;;;;;0.00;0.00;;;;;14.55;100.00;101232.75;5058572;28;45365;-76
2021/12/30 05:30:45;;;;;;;;;0.00;0.00;;;;;14.35;100.00;101201.56;5054811;28;45399;-78
2021/12/30 05:33:11;;;;;;;;;0.00;0.00;;;;;14.51;100.00;101228.47;5039719;28;46552;-76
2021/12/30 05:35:36;;;;;;;;;0.00;0.00;;;;;14.54;100.00;101232.78;5055047;28;45320;-77
2021/12/30 05:38:02;;;;;;;;;0.00;0.00;;;;;14.55;100.00;101239.81;5058516;28;45495;-76
2021/12/30 05:40:29;;;;;;;;;0.25;0.00;;;;;14.49;100.00;101229.41;5066183;27;45382;-77
2021/12/30 05:42:54;;;;;;;;;0.00;0.00;;;;;14.54;100.00;101233.66;5049251;28;46629;-76
2021/12/30 05:45:20;;;;;;;;;0.00;0.00;;;;;14.58;100.00;101235.28;5049346;28;45513;-75
2021/12/30 05:47:47;;;;;;;;;0.00;0.00;;;;;14.61;100.00;101244.94;5039649;28;45227;-76
2021/12/30 05:50:16;;;;;;;;;1.50;0.00;;;;;14.61;100.00;101248.47;5053846;28;45425;-75
2021/12/30 05:52:41;;;;;;;;;0.00;0.00;;;;;14.62;100.00;101244.94;5047680;28;46392;-77
2021/12/30 05:55:07;;;;;;;;;0.25;0.00;;;;;14.63;100.00;101253.72;5039357;28;45362;-77
2021/12/30 05:57:33;;;;;;;;;0.25;0.00;;;;;14.61;100.00;101248.47;5043059;28;45546;-77
2021/12/30 05:59:59;;;;;;;;;2.00;0.00;;;;;14.63;100.00;101243.97;5040315;28;45222;-77
2021/12/30 06:02:24;;;;;;;;;0.25;0.00;;;;;14.63;100.00;101229.88;5039036;28;46340;-78
2021/12/30 06:04:50;;;;;;;;;4.00;1.50;;;;;14.68;100.00;101235.91;5045919;28;45250;-77
2021/12/30 06:07:15;;;;;;;;;3.00;0.00;;;;;14.70;100.00;101239.38;5059272;28;45280;-78
2021/12/30 06:09:41;;;;;;;;;0.00;0.00;;;;;14.62;100.00;101231.66;5058856;28;45172;-76
2021/12/30 06:12:08;;;;;;;;;0.00;0.00;;;;;14.56;100.00;101226.50;5057372;28;47563;-78
2021/12/30 06:14:33;;;;;;;;;0.60;0.60;;;;;14.65;100.00;101227.19;5043503;28;45372;-76
2021/12/30 06:16:59;;;;;;;;;1.00;0.00;;;;;14.61;100.00;101224.63;5059029;28;45506;-76
2021/12/30 06:19:24;;;;;;;;;0.00;0.00;;;;;14.62;100.00;101226.38;5058078;28;45482;-76
2021/12/30 06:21:49;;;;;;;;;0.50;0.00;;;;;14.68;100.00;101254.47;5058673;28;45822;-76
2021/12/30 06:24:15;;;;;;;;;2.00;1.00;;;;;14.63;100.00;101227.22;5052651;28;45425;-75
2021/12/30 06:26:40;;;;;;;;;3.75;0.75;;;;;14.64;100.00;101228.97;5039758;28;45337;-75
2021/12/30 06:29:06;;;;;;;;;0.25;0.25;;;;;14.67;100.00;101235.94;5039150;28;45557;-75
2021/12/30 06:31:32;;;;;;;;;0.00;0.00;;;;;14.70;100.00;101239.38;5038596;28;46669;-76
2021/12/30 06:33:57;;;;;;;;;0.00;0.00;;;;;14.67;100.00;101255.38;5053967;28;45363;-76
2021/12/30 06:36:23;;;;;;;;;0.25;0.25;;;;;14.66;100.00;101247.47;5057381;28;45610;-75
2021/12/30 06:38:49;;;;;;;;;2.75;0.00;;;;;14.70;100.00;101257.91;5039716;28;45242;-77
2021/12/30 06:41:15;;;;;;;;;0.25;0.00;;;;;14.62;100.00;101230.78;5038573;28;45582;-75
2021/12/30 06:43:41;;;;;;;;;2.00;0.00;;;;;14.71;100.00;101258.78;5053506;28;45258;-77
2021/12/30 06:46:09;;;;;;;;;3.25;0.00;;;;;14.70;100.00;101249.97;5058056;28;45171;-76
2021/12/30 06:48:35;;;;;;;;;1.00;1.00;;;;;14.72;100.00;101248.13;5042252;28;45361;-76
2021/12/30 06:51:00;;;;;;;;;1.75;1.00;;;;;14.70;100.00;101251.75;5038365;28;45352;-77
2021/12/30 06:53:26;;;;;;;;;2.75;0.00;;;;;14.66;100.00;101240.38;5038458;28;45684;-76
2021/12/30 06:55:52;;;;;;;;;2.00;0.25;;;;;14.73;100.00;101254.31;5058066;28;45434;-76
2021/12/30 06:58:19;;;;;;;;;2.50;0.75;;;;;14.67;100.00;101254.47;5056944;28;45428;-76
2021/12/30 07:00:46;;;;;;;;;1.50;1.00;;;;;14.71;100.00;101267.63;5047854;28;45742;-76
2021/12/30 07:03:12;;;;;;;;;2.00;1.00;;;;;14.70;100.00;101249.97;5047696;28;45324;-75
2021/12/30 07:05:37;;;;;;;;;4.00;1.00;;;;;14.69;100.00;101247.38;5058068;28;45297;-76
2021/12/30 07:08:03;;;;;;;;;2.00;2.00;;;;;14.68;99.88;101246.50;5058359;28;45403;-77
2021/12/30 07:10:28;;;;;;;;;3.00;3.00;;;;;14.69;100.00;101263.28;5057854;28;45436;-77
2021/12/30 07:12:54;;;;;;;;;1.75;1.00;;;;;14.73;99.76;101268.44;5057761;28;45404;-78
2021/12/30 07:15:20;;;;;;;;;2.50;1.00;;;;;14.79;99.48;101275.31;5044230;28;45962;-76
2021/12/30 07:17:46;;;;;;;;;2.00;2.00;;;;;14.72;99.04;101257.88;5039110;28;45437;-75
2021/12/30 07:20:12;;;;;;;;;1.00;1.00;;;;;14.76;99.07;101275.41;5037718;28;46393;-75
2021/12/30 07:22:38;;;;;;;;;3.40;1.80;;;;;14.74;98.63;101278.13;5038071;28;45381;-76
2021/12/30 07:25:04;;;;;;;;;3.50;2.25;;;;;14.74;98.66;101280.78;5037987;28;45424;-76
2021/12/30 07:27:30;;;;;;;;;4.75;1.25;;;;;14.70;97.99;101283.56;5038218;28;45450;-76
2021/12/30 07:29:57;;;;;;;;;3.00;1.00;;;;;14.78;97.58;101297.44;5041469;28;45473;-76
2021/12/30 07:32:22;;;;;;;;;7.25;3.25;;;;;14.68;97.16;101272.13;5055844;28;45293;-75
2021/12/30 07:34:48;;;;;;;;;5.00;1.00;;;;;14.81;97.02;101302.63;5046816;28;45527;-76
2021/12/30 07:37:14;;;;;;;;;4.75;2.00;;;;;14.74;97.33;101301.97;5042398;28;45776;-75
2021/12/30 07:39:44;;;;;;;;;1.00;0.25;;;;;14.79;96.22;101304.47;5057267;28;46383;-75
2021/12/30 07:42:10;;;;;;;;;1.25;0.75;;;;;14.80;97.22;101308.88;5056994;28;45453;-75
2021/12/30 07:44:36;;;;;;;;;8.00;2.25;;;;;14.79;95.85;101315.94;5057500;28;45297;-76
2021/12/30 07:47:01;;;;;;;;;3.00;2.75;;;;;14.86;95.84;101324.59;5050718;28;45556;-76
2021/12/30 07:49:27;;;;;;;;;2.75;1.00;;;;;14.84;95.98;101315.81;5037057;28;46155;-77
2021/12/30 07:51:53;;;;;;;;;4.50;1.50;;;;;14.89;95.50;101328.94;5037528;28;45647;-75
2021/12/30 07:54:18;;;;;;;;;1.75;1.75;;;;;14.86;95.21;101318.41;5036463;28;45436;-75
2021/12/30 07:56:43;;;;;;;;;4.00;2.00;;;;;14.88;95.13;101340.44;5047518;28;45423;-75
2021/12/30 07:59:09;;;;;;;;;4.00;1.00;;;;;14.79;95.51;101323.91;5055239;28;45512;-76
2021/12/30 08:01:34;;;;;;;;;1.75;1.75;;;;;14.80;95.16;101324.78;5055282;28;45411;-76
2021/12/30 08:04:00;;;;;;;;;1.25;0.25;;;;;14.86;95.45;101332.53;5045033;28;45424;-76
2021/12/30 08:06:28;;;;;;;;;1.75;1.00;;;;;14.93;95.35;101344.69;5037695;28;45374;-77
2021/12/30 08:08:54;;;;;;;;;1.00;0.50;;;;;14.77;94.93;101314.28;5037268;28;47126;-78
2021/12/30 08:11:20;;;;;;;;;1.25;1.00;;;;;14.85;94.93;101336.09;5037116;28;45479;-76
2021/12/30 08:13:45;;;;;;;;;4.25;2.00;;;;;14.96;94.34;101346.38;5037200;28;45255;-77
2021/12/30 08:16:12;;;;;;;;;3.00;1.75;;;;;14.96;94.69;101349.03;5041327;28;45214;-77
2021/12/30 08:18:37;;;;;;;;;2.00;2.00;;;;;14.93;94.81;101339.38;5049150;28;45528;-75
2021/12/30 08:21:02;;;;;;;;;5.50;3.00;;;;;14.88;94.35;101332.47;5047881;28;45393;-76
2021/12/30 08:23:28;;;;;;;;;7.00;3.25;;;;;14.91;94.67;101346.50;5056942;28;45559;-76
2021/12/30 08:25:53;;;;;;;;;5.00;3.00;;;;;14.89;94.09;101351.00;5055746;28;45421;-78
2021/12/30 08:28:19;;;;;;;;;11.25;5.75;;;;;14.98;93.88;101361.31;5057031;28;46384;-76
2021/12/30 08:30:45;;;;;;;;;4.75;2.75;;;;;15.03;94.11;101378.84;5055162;28;45322;-77
2021/12/30 08:33:11;;;;;;;;;3.50;2.00;;;;;15.00;93.87;101377.16;5056974;28;45349;-77
2021/12/30 08:35:36;;;;;;;;;3.75;1.25;;;;;14.82;93.58;101340.63;5054396;28;45471;-77
2021/12/30 08:38:01;;;;;;;;;2.00;2.00;;;;;14.98;92.69;101363.97;5036697;28;46337;-76
2021/12/30 08:40:27;;;;;;;;;4.50;1.25;;;;;15.06;92.61;101381.41;5048930;28;45349;-77
2021/12/30 08:42:52;;;;;;;;;5.75;3.50;;;;;15.01;93.36;101380.72;5050911;28;45300;-77
2021/12/30 08:45:19;;;;;;;;;4.75;2.50;;;;;14.91;92.67;101343.00;5054953;28;45408;-76
2021/12/30 08:47:44;;;;;;;;;5.00;1.50;;;;;15.09;92.85;101395.47;5054632;28;45683;-76
2021/12/30 08:50:13;;;;;;;;;2.25;0.25;;;;;15.11;92.69;101393.63;5048894;28;45530;-77
2021/12/30 08:52:40;;;;;;;;;4.75;4.50;;;;;15.10;92.83;101397.22;5060275;28;45480;-77
2021/12/30 08:55:10;;;;;;;;;1.50;1.50;;;;;14.91;92.50;101365.06;5047068;28;45461;-77
2021/12/30 08:57:38;;;;;;;;;1.50;1.50;;;;;15.02;92.64;101380.66;5056434;28;46603;-77
2021/12/30 09:00:06;;;;;;;;;4.00;3.00;;;;;15.11;92.77;101395.41;5043756;28;45436;-77
2021/12/30 09:02:32;;;;;;;;;4.00;1.75;;;;;15.09;93.18;101400.78;5056042;28;45420;-78
2021/12/30 09:04:57;;;;;;;;;1.50;1.50;;;;;15.14;92.61;101409.44;5051498;28;45369;-78
2021/12/30 09:07:22;;;;;;;;;3.00;1.50;;;;;15.08;93.25;101395.50;5059707;28;45319;-76
2021/12/30 09:09:49;;;;;;;;;1.00;1.00;;;;;15.15;92.92;101416.47;5059691;28;45490;-77
2021/12/30 09:12:14;;;;;;;;;0.50;0.50;;;;;15.07;93.45;101391.97;5059993;28;45392;-77
2021/12/30 09:14:40;;;;;;;;;4.00;0.75;;;;;14.97;94.14;101375.50;5059954;28;45379;-78
2021/12/30 09:17:06;;;;;;;;;0.50;0.50;;;;;15.18;93.51;101419.97;5059599;28;45297;-76
2021/12/30 09:19:31;;;;;;;;;2.50;2.50;;;;;15.15;93.41;101416.47;5048468;28;45354;-77
2021/12/30 09:21:57;;;;;;;;;9.25;8.25;;;;;15.13;93.79;101406.84;5059731;28;45217;-77
2021/12/30 09:24:23;;;;;;;;;1.25;1.25;;;;;15.15;94.00;101418.28;5060169;28;45468;-76
2021/12/30 09:26:48;;;;;;;;;3.75;0.25;;;;;15.23;94.04;101426.00;5059634;28;46538;-77
2021/12/30 09:29:14;;;;;;;;;1.00;1.00;;;;;15.24;94.05;101430.38;5059857;28;45294;-78
2021/12/30 09:31:43;;;;;;;;;5.75;1.00;;;;;15.13;94.63;101414.78;5045710;28;46947;-77
2021/12/30 09:34:09;;;;;;;;;0.50;0.50;;;;;15.25;94.54;101433.00;5039884;28;45459;-78
2021/12/30 09:36:36;;;;;;;;;0.00;0.00;;;;;15.28;94.17;101435.53;5041467;28;45792;-77
2021/12/30 09:39:04;;;;;;;;;2.25;0.75;;;;;15.28;94.38;101432.03;5040338;28;45459;-77
2021/12/30 09:41:30;;;;;;;;;6.50;5.00;;;;;15.28;94.69;101438.19;5057949;28;45297;-77
2021/12/30 09:43:55;;;;;;;;;3.50;1.75;;;;;15.28;94.49;101422.28;5059688;28;45408;-77
2021/12/30 09:46:21;;;;;;;;;5.75;2.50;;;;;15.37;94.41;101431.72;5061989;28;46456;-77
2021/12/30 09:48:49;;;;;;;;;1.50;1.25;;;;;15.43;94.31;101457.22;5066085;27;45788;-77
2021/12/30 09:51:14;;;;;;;;;0.50;0.50;;;;;15.36;94.39;101447.72;5059684;28;45258;-77
2021/12/30 09:53:39;;;;;;;;;0.50;0.50;;;;;15.31;94.98;101439.91;5059000;28;45342;-77
2021/12/30 09:56:05;;;;;;;;;4.50;1.25;;;;;15.33;95.23;101435.41;5058745;28;45400;-76
2021/12/30 09:58:31;;;;;;;;;0.00;0.00;;;;;15.33;93.95;101440.69;5059342;28;45222;-76
2021/12/30 10:00:57;;;;;;;;;1.25;1.25;;;;;15.42;94.35;101452.81;5059568;28;45279;-76
2021/12/30 10:03:22;;;;;;;;;0.50;0.50;;;;;15.38;94.51;101443.19;5059708;28;45216;-77
2021/12/30 10:05:48;;;;;;;;;2.50;1.00;;;;;15.23;94.33;101418.03;5059058;28;46271;-76
2021/12/30 10:08:18;;;;;;;;;1.50;1.50;;;;;15.43;94.47;101458.06;5059482;28;45633;-77
2021/12/30 10:10:49;;;;;;;;;1.00;0.50;;;;;15.44;94.27;101466.91;5059300;28;45481;-76
2021/12/30 10:13:25;;;;;;;;;4.00;1.00;;;;;15.10;95.09;101417.53;5059386;28;45419;-76
2021/12/30 10:15:53;;;;;;;;;3.25;1.50;;;;;15.43;94.78;101468.69;5045136;28;46482;-76
2021/12/30 10:18:20;;;;;;;;;2.50;1.75;;;;;15.40;94.88;101465.28;5052417;28;45488;-77
2021/12/30 10:20:47;;;;;;;;;2.50;1.50;;;;;15.43;94.48;101463.38;5057904;28;45278;-76
2021/12/30 10:23:22;;;;;;;;;2.25;1.50;;;;;15.44;94.79;101469.56;5058224;28;45660;-76
2021/12/30 10:25:53;;;;;;;;;4.00;2.75;;;;;15.43;94.94;101465.16;5057003;28;46155;-76
2021/12/30 10:28:31;;;;;;;;;4.25;1.50;;;;;15.44;95.24;101456.31;5057633;28;45334;-76
2021/12/30 10:31:12;;;;;;;;;2.50;2.00;;;;;15.47;94.09;101464.16;5057166;28;45517;-76
2021/12/30 10:33:47;;;;;;;;;1.50;0.75;;;;;15.44;94.20;101462.47;5057469;28;45381;-77
2021/12/30 10:36:18;;;;;;;;;2.50;1.50;;;;;15.44;94.65;101459.81;5057142;28;45643;-75
2021/12/30 10:38:43;;;;;;;;;5.00;3.75;;;;;15.50;94.70;101464.06;5056977;28;45467;-77
2021/12/30 10:41:09;;;;;;;;;2.25;2.25;;;;;15.46;94.28;101457.09;5057335;28;45447;-75
2021/12/30 10:43:45;;;;;;;;;3.50;2.75;;;;;15.38;94.73;101429.94;5057968;28;45305;-76
2021/12/30 10:46:15;;;;;;;;;2.75;1.25;;;;;15.68;94.16;101467.91;5058392;28;47022;-75
2021/12/30 10:49:01;;;;;;;;;2.60;0.60;;;;;15.72;94.10;101463.38;5057141;28;45194;-76
2021/12/30 10:51:48;;;;;;;;;3.00;2.00;;;;;15.78;93.64;101471.13;5039271;28;45519;-75
2021/12/30 10:54:22;;;;;;;;;5.50;2.25;;;;;15.80;92.38;101458.69;5051137;28;45835;-74
2021/12/30 10:56:55;;;;;;;;;3.00;2.00;;;;;15.76;93.52;101459.69;5059954;28;46184;-75
2021/12/30 10:59:26;;;;;;;;;2.75;1.00;;;;;15.78;92.49;101456.09;5051086;28;45253;-75
2021/12/30 11:02:16;;;;;;;;;4.25;1.25;;;;;15.77;92.95;101450.78;5078658;27;45455;-76
2021/12/30 11:04:46;;;;;;;;;4.75;3.00;;;;;15.77;92.95;101450.78;5063218;27;45420;-75
2021/12/30 11:07:14;;;;;;;;;9.25;1.75;;;;;15.77;92.61;101443.72;5048553;28;46754;-76
2021/12/30 11:09:55;;;;;;;;;3.75;3.00;;;;;15.80;92.29;101445.41;5061628;28;45417;-75
2021/12/30 11:12:32;;;;;;;;;4.75;3.00;;;;;15.78;92.56;101442.81;5058426;28;45448;-75
2021/12/30 11:15:00;;;;;;;;;4.50;3.00;;;;;15.78;92.28;101437.50;5058527;28;45427;-75
2021/12/30 11:17:33;;;;;;;;;3.50;1.75;;;;;15.79;92.02;101444.56;5057904;28;46326;-75
2021/12/30 11:20:04;;;;;;;;;4.00;1.75;;;;;15.75;92.47;101431.41;5058119;28;45449;-75